sensor_id;sensor_type;location;lat;lon;timestamp;temperature;humidity
68977;SHT31;56029;52.568;13.588;2023-05-27T00:01:02;7.59;86.38
68977;SHT31;56029;52.568;13.588;2023-05-27T00:03:28;7.53;87.78
68977;SHT31;56029;52.568;13.588;2023-05-27T00:05:54;7.52;88.76
68977;SHT31;56029;52.568;13.588;2023-05-27T00:08:20;7.52;88.70
68977;SHT31;56029;52.568;13.588;2023-05-27T00:10:45;7.49;88.33
68977;SHT31;56029;52.568;13.588;2023-05-27T00:13:11;7.43;88.23
68977;SHT31;56029;52.568;13.588;2023-05-27T00:15:40;7.36;89.07
68977;SHT31;56029;52.568;13.588;2023-05-27T00:18:06;7.27;89.51
68977;SHT31;56029;52.568;13.588;2023-05-27T00:20:32;7.24;89.80
68977;SHT31;56029;52.568;13.588;2023-05-27T00:22:58;7.23;90.59
68977;SHT31;56029;52.568;13.588;2023-05-27T00:25:25;7.22;89.93
68977;SHT31;56029;52.568;13.588;2023-05-27T00:27:51;7.23;90.47
68977;SHT31;56029;52.568;13.588;2023-05-27T00:30:17;7.20;89.99
68977;SHT31;56029;52.568;13.588;2023-05-27T00:32:42;7.24;90.87
68977;SHT31;56029;52.568;13.588;2023-05-27T00:35:08;7.29;91.12
68977;SHT31;56029;52.568;13.588;2023-05-27T00:37:34;7.32;91.11
68977;SHT31;56029;52.568;13.588;2023-05-27T00:40:00;7.30;90.06
68977;SHT31;56029;52.568;13.588;2023-05-27T00:42:26;7.26;89.76
68977;SHT31;56029;52.568;13.588;2023-05-27T00:44:51;7.24;89.57
68977;SHT31;56029;52.568;13.588;2023-05-27T00:47:17;7.23;88.97
68977;SHT31;56029;52.568;13.588;2023-05-27T00:49:44;7.19;89.42
68977;SHT31;56029;52.568;13.588;2023-05-27T00:52:10;7.16;89.63
68977;SHT31;56029;52.568;13.588;2023-05-27T00:54:35;7.18;89.92
68977;SHT31;56029;52.568;13.588;2023-05-27T00:57:02;7.15;88.99
68977;SHT31;56029;52.568;13.588;2023-05-27T00:59:28;7.16;90.03
68977;SHT31;56029;52.568;13.588;2023-05-27T01:01:54;7.12;89.57
68977;SHT31;56029;52.568;13.588;2023-05-27T01:04:20;7.13;89.88
68977;SHT31;56029;52.568;13.588;2023-05-27T01:12:33;7.05;89.27
68977;SHT31;56029;52.568;13.588;2023-05-27T01:15:02;7.08;89.72
68977;SHT31;56029;52.568;13.588;2023-05-27T01:17:31;7.08;89.49
68977;SHT31;56029;52.568;13.588;2023-05-27T01:19:57;7.02;89.40
68977;SHT31;56029;52.568;13.588;2023-05-27T01:22:27;6.94;90.28
68977;SHT31;56029;52.568;13.588;2023-05-27T01:24:53;6.89;90.28
68977;SHT31;56029;52.568;13.588;2023-05-27T01:27:18;6.84;89.54
68977;SHT31;56029;52.568;13.588;2023-05-27T01:29:44;6.78;89.33
68977;SHT31;56029;52.568;13.588;2023-05-27T01:32:25;6.67;89.98
68977;SHT31;56029;52.568;13.588;2023-05-27T01:35:19;6.63;90.04
68977;SHT31;56029;52.568;13.588;2023-05-27T01:37:45;6.60;92.53
68977;SHT31;56029;52.568;13.588;2023-05-27T01:40:13;6.60;92.56
68977;SHT31;56029;52.568;13.588;2023-05-27T01:42:40;6.60;92.80
68977;SHT31;56029;52.568;13.588;2023-05-27T01:45:07;6.57;92.78
68977;SHT31;56029;52.568;13.588;2023-05-27T01:47:34;6.55;92.90
68977;SHT31;56029;52.568;13.588;2023-05-27T01:50:00;6.55;92.86
68977;SHT31;56029;52.568;13.588;2023-05-27T01:52:26;6.54;92.17
68977;SHT31;56029;52.568;13.588;2023-05-27T01:54:51;6.50;91.74
68977;SHT31;56029;52.568;13.588;2023-05-27T01:57:18;6.43;91.68
68977;SHT31;56029;52.568;13.588;2023-05-27T01:59:43;6.40;92.12
68977;SHT31;56029;52.568;13.588;2023-05-27T02:02:09;6.41;93.29
68977;SHT31;56029;52.568;13.588;2023-05-27T02:04:35;6.37;92.75
68977;SHT31;56029;52.568;13.588;2023-05-27T02:07:00;6.36;93.47
68977;SHT31;56029;52.568;13.588;2023-05-27T02:09:26;6.34;93.24
68977;SHT31;56029;52.568;13.588;2023-05-27T02:11:52;6.27;93.08
68977;SHT31;56029;52.568;13.588;2023-05-27T02:14:17;6.29;92.61
68977;SHT31;56029;52.568;13.588;2023-05-27T02:16:43;6.27;94.16
68977;SHT31;56029;52.568;13.588;2023-05-27T02:19:09;6.23;92.63
68977;SHT31;56029;52.568;13.588;2023-05-27T02:21:35;6.16;92.92
68977;SHT31;56029;52.568;13.588;2023-05-27T02:24:01;6.15;93.40
68977;SHT31;56029;52.568;13.588;2023-05-27T02:26:27;6.07;93.27
68977;SHT31;56029;52.568;13.588;2023-05-27T02:28:53;6.06;93.54
68977;SHT31;56029;52.568;13.588;2023-05-27T02:31:19;5.99;93.24
68977;SHT31;56029;52.568;13.588;2023-05-27T02:33:44;5.98;93.67
68977;SHT31;56029;52.568;13.588;2023-05-27T02:36:10;5.92;93.05
68977;SHT31;56029;52.568;13.588;2023-05-27T02:38:37;5.92;94.64
68977;SHT31;56029;52.568;13.588;2023-05-27T02:41:02;5.85;93.65
68977;SHT31;56029;52.568;13.588;2023-05-27T02:43:28;5.88;93.98
68977;SHT31;56029;52.568;13.588;2023-05-27T02:45:53;5.86;93.82
68977;SHT31;56029;52.568;13.588;2023-05-27T02:48:19;5.84;93.97
68977;SHT31;56029;52.568;13.588;2023-05-27T02:50:45;5.85;94.20
68977;SHT31;56029;52.568;13.588;2023-05-27T02:53:10;5.84;95.03
68977;SHT31;56029;52.568;13.588;2023-05-27T02:55:36;5.86;95.21
68977;SHT31;56029;52.568;13.588;2023-05-27T02:58:01;5.92;95.61
68977;SHT31;56029;52.568;13.588;2023-05-27T03:00:29;5.88;94.08
68977;SHT31;56029;52.568;13.588;2023-05-27T03:02:55;5.86;94.62
68977;SHT31;56029;52.568;13.588;2023-05-27T03:05:21;5.82;93.44
68977;SHT31;56029;52.568;13.588;2023-05-27T03:07:46;5.82;93.75
68977;SHT31;56029;52.568;13.588;2023-05-27T03:10:12;5.81;93.58
68977;SHT31;56029;52.568;13.588;2023-05-27T03:12:37;5.81;92.87
68977;SHT31;56029;52.568;13.588;2023-05-27T03:15:04;5.79;93.03
68977;SHT31;56029;52.568;13.588;2023-05-27T03:17:29;5.74;92.73
68977;SHT31;56029;52.568;13.588;2023-05-27T03:19:55;5.72;93.58
68977;SHT31;56029;52.568;13.588;2023-05-27T03:22:20;5.82;94.60
68977;SHT31;56029;52.568;13.588;2023-05-27T03:24:46;5.81;93.11
68977;SHT31;56029;52.568;13.588;2023-05-27T03:27:12;5.82;93.90
68977;SHT31;56029;52.568;13.588;2023-05-27T03:29:38;5.75;93.79
68977;SHT31;56029;52.568;13.588;2023-05-27T03:32:03;5.78;94.75
68977;SHT31;56029;52.568;13.588;2023-05-27T03:34:29;5.84;95.57
68977;SHT31;56029;52.568;13.588;2023-05-27T03:36:54;5.89;94.83
68977;SHT31;56029;52.568;13.588;2023-05-27T03:39:20;5.96;94.78
68977;SHT31;56029;52.568;13.588;2023-05-27T03:41:46;6.17;94.94
68977;SHT31;56029;52.568;13.588;2023-05-27T03:44:12;6.67;94.20
68977;SHT31;56029;52.568;13.588;2023-05-27T03:46:37;7.06;92.34
68977;SHT31;56029;52.568;13.588;2023-05-27T03:49:03;7.46;90.26
68977;SHT31;56029;52.568;13.588;2023-05-27T03:51:28;7.87;89.37
68977;SHT31;56029;52.568;13.588;2023-05-27T03:53:54;8.21;87.33
68977;SHT31;56029;52.568;13.588;2023-05-27T03:56:19;8.49;86.58
68977;SHT31;56029;52.568;13.588;2023-05-27T03:58:45;8.77;85.89
68977;SHT31;56029;52.568;13.588;2023-05-27T04:01:11;8.76;84.76
68977;SHT31;56029;52.568;13.588;2023-05-27T04:03:37;8.97;84.49
68977;SHT31;56029;52.568;13.588;2023-05-27T04:06:05;9.15;83.87
68977;SHT31;56029;52.568;13.588;2023-05-27T04:08:31;9.36;83.19
68977;SHT31;56029;52.568;13.588;2023-05-27T04:10:57;9.58;82.74
68977;SHT31;56029;52.568;13.588;2023-05-27T04:13:22;9.60;83.08
68977;SHT31;56029;52.568;13.588;2023-05-27T04:15:48;9.34;83.61
68977;SHT31;56029;52.568;13.588;2023-05-27T04:18:14;9.10;84.64
68977;SHT31;56029;52.568;13.588;2023-05-27T04:20:41;8.88;85.62
68977;SHT31;56029;52.568;13.588;2023-05-27T04:23:09;8.70;86.25
68977;SHT31;56029;52.568;13.588;2023-05-27T04:25:35;8.46;87.01
68977;SHT31;56029;52.568;13.588;2023-05-27T04:28:01;8.25;88.43
68977;SHT31;56029;52.568;13.588;2023-05-27T04:30:32;8.49;88.49
68977;SHT31;56029;52.568;13.588;2023-05-27T04:33:02;9.22;86.34
68977;SHT31;56029;52.568;13.588;2023-05-27T04:35:28;9.82;84.52
68977;SHT31;56029;52.568;13.588;2023-05-27T04:37:57;10.33;82.74
68977;SHT31;56029;52.568;13.588;2023-05-27T04:40:24;10.75;81.62
68977;SHT31;56029;52.568;13.588;2023-05-27T04:42:50;11.22;79.99
68977;SHT31;56029;52.568;13.588;2023-05-27T04:45:15;11.44;79.27
68977;SHT31;56029;52.568;13.588;2023-05-27T04:47:41;11.61;79.13
68977;SHT31;56029;52.568;13.588;2023-05-27T04:50:08;11.91;79.01
68977;SHT31;56029;52.568;13.588;2023-05-27T04:52:35;12.13;78.27
68977;SHT31;56029;52.568;13.588;2023-05-27T04:55:10;12.39;77.93
68977;SHT31;56029;52.568;13.588;2023-05-27T04:57:36;12.44;77.47
68977;SHT31;56029;52.568;13.588;2023-05-27T05:00:03;12.51;78.04
68977;SHT31;56029;52.568;13.588;2023-05-27T05:02:29;12.32;78.93
68977;SHT31;56029;52.568;13.588;2023-05-27T05:05:06;12.22;79.53
68977;SHT31;56029;52.568;13.588;2023-05-27T05:07:32;12.03;80.00
68977;SHT31;56029;52.568;13.588;2023-05-27T05:09:59;11.89;80.59
68977;SHT31;56029;52.568;13.588;2023-05-27T05:12:25;11.60;81.07
68977;SHT31;56029;52.568;13.588;2023-05-27T05:14:53;11.54;81.85
68977;SHT31;56029;52.568;13.588;2023-05-27T05:17:19;11.85;81.49
68977;SHT31;56029;52.568;13.588;2023-05-27T05:19:49;11.85;81.48
68977;SHT31;56029;52.568;13.588;2023-05-27T05:22:15;11.79;81.37
68977;SHT31;56029;52.568;13.588;2023-05-27T05:24:44;11.65;81.87
68977;SHT31;56029;52.568;13.588;2023-05-27T05:27:10;11.53;82.69
68977;SHT31;56029;52.568;13.588;2023-05-27T05:29:35;11.47;82.97
68977;SHT31;56029;52.568;13.588;2023-05-27T05:32:02;11.50;83.39
68977;SHT31;56029;52.568;13.588;2023-05-27T05:34:28;11.45;83.45
68977;SHT31;56029;52.568;13.588;2023-05-27T05:36:53;11.38;83.57
68977;SHT31;56029;52.568;13.588;2023-05-27T05:39:19;11.40;84.41
68977;SHT31;56029;52.568;13.588;2023-05-27T05:41:46;11.38;83.97
68977;SHT31;56029;52.568;13.588;2023-05-27T05:44:11;11.37;84.44
68977;SHT31;56029;52.568;13.588;2023-05-27T05:46:37;11.40;84.61
68977;SHT31;56029;52.568;13.588;2023-05-27T05:49:03;11.40;84.65
68977;SHT31;56029;52.568;13.588;2023-05-27T05:51:29;11.50;84.66
68977;SHT31;56029;52.568;13.588;2023-05-27T05:53:56;11.58;84.43
68977;SHT31;56029;52.568;13.588;2023-05-27T05:56:21;11.72;83.94
68977;SHT31;56029;52.568;13.588;2023-05-27T05:58:47;11.93;82.09
68977;SHT31;56029;52.568;13.588;2023-05-27T06:01:12;12.01;81.35
68977;SHT31;56029;52.568;13.588;2023-05-27T06:03:38;12.09;81.82
68977;SHT31;56029;52.568;13.588;2023-05-27T06:06:04;12.12;79.16
68977;SHT31;56029;52.568;13.588;2023-05-27T06:08:29;12.28;80.09
68977;SHT31;56029;52.568;13.588;2023-05-27T06:10:56;12.41;77.97
68977;SHT31;56029;52.568;13.588;2023-05-27T06:13:21;12.49;76.83
68977;SHT31;56029;52.568;13.588;2023-05-27T06:15:47;12.70;76.93
68977;SHT31;56029;52.568;13.588;2023-05-27T06:18:12;12.74;70.65
68977;SHT31;56029;52.568;13.588;2023-05-27T06:20:38;12.81;72.41
68977;SHT31;56029;52.568;13.588;2023-05-27T06:23:03;12.80;70.11
68977;SHT31;56029;52.568;13.588;2023-05-27T06:25:29;12.92;71.02
68977;SHT31;56029;52.568;13.588;2023-05-27T06:27:54;12.88;69.05
68977;SHT31;56029;52.568;13.588;2023-05-27T06:30:20;13.02;70.53
68977;SHT31;56029;52.568;13.588;2023-05-27T06:32:45;13.15;69.30
68977;SHT31;56029;52.568;13.588;2023-05-27T06:35:11;13.23;66.92
68977;SHT31;56029;52.568;13.588;2023-05-27T06:37:37;13.26;65.93
68977;SHT31;56029;52.568;13.588;2023-05-27T06:40:02;13.40;66.36
68977;SHT31;56029;52.568;13.588;2023-05-27T06:42:28;13.39;64.87
68977;SHT31;56029;52.568;13.588;2023-05-27T06:44:54;13.39;65.19
68977;SHT31;56029;52.568;13.588;2023-05-27T06:47:19;13.53;64.44
68977;SHT31;56029;52.568;13.588;2023-05-27T06:49:45;13.65;63.38
68977;SHT31;56029;52.568;13.588;2023-05-27T06:52:11;13.70;64.29
68977;SHT31;56029;52.568;13.588;2023-05-27T06:54:36;13.77;65.84
68977;SHT31;56029;52.568;13.588;2023-05-27T06:57:02;13.93;61.36
68977;SHT31;56029;52.568;13.588;2023-05-27T06:59:28;13.78;60.79
68977;SHT31;56029;52.568;13.588;2023-05-27T07:01:54;13.73;61.88
68977;SHT31;56029;52.568;13.588;2023-05-27T07:04:21;13.76;62.73
68977;SHT31;56029;52.568;13.588;2023-05-27T07:06:47;13.77;61.97
68977;SHT31;56029;52.568;13.588;2023-05-27T07:09:13;13.91;62.01
68977;SHT31;56029;52.568;13.588;2023-05-27T07:11:40;13.96;61.90
68977;SHT31;56029;52.568;13.588;2023-05-27T07:14:06;14.01;62.77
68977;SHT31;56029;52.568;13.588;2023-05-27T07:16:32;13.90;62.41
68977;SHT31;56029;52.568;13.588;2023-05-27T07:18:57;13.91;62.66
68977;SHT31;56029;52.568;13.588;2023-05-27T07:21:23;13.84;62.60
68977;SHT31;56029;52.568;13.588;2023-05-27T07:23:48;14.00;62.94
68977;SHT31;56029;52.568;13.588;2023-05-27T07:26:14;14.04;61.01
68977;SHT31;56029;52.568;13.588;2023-05-27T07:28:39;14.24;60.53
68977;SHT31;56029;52.568;13.588;2023-05-27T07:31:05;14.15;60.65
68977;SHT31;56029;52.568;13.588;2023-05-27T07:33:30;14.32;61.68
68977;SHT31;56029;52.568;13.588;2023-05-27T07:35:56;14.27;61.80
68977;SHT31;56029;52.568;13.588;2023-05-27T07:38:21;14.45;58.06
68977;SHT31;56029;52.568;13.588;2023-05-27T07:40:47;14.45;58.70
68977;SHT31;56029;52.568;13.588;2023-05-27T07:43:13;14.42;57.80
68977;SHT31;56029;52.568;13.588;2023-05-27T07:45:38;14.48;57.02
68977;SHT31;56029;52.568;13.588;2023-05-27T07:48:04;14.62;56.30
68977;SHT31;56029;52.568;13.588;2023-05-27T07:50:29;14.65;56.53
68977;SHT31;56029;52.568;13.588;2023-05-27T07:52:55;14.65;56.71
68977;SHT31;56029;52.568;13.588;2023-05-27T07:55:20;14.65;57.73
68977;SHT31;56029;52.568;13.588;2023-05-27T07:57:46;14.84;56.99
68977;SHT31;56029;52.568;13.588;2023-05-27T08:00:12;15.00;56.74
68977;SHT31;56029;52.568;13.588;2023-05-27T08:02:38;15.19;57.48
68977;SHT31;56029;52.568;13.588;2023-05-27T08:05:04;15.11;55.62
68977;SHT31;56029;52.568;13.588;2023-05-27T08:07:30;14.94;52.82
68977;SHT31;56029;52.568;13.588;2023-05-27T08:09:55;14.94;55.83
68977;SHT31;56029;52.568;13.588;2023-05-27T08:12:21;15.17;56.71
68977;SHT31;56029;52.568;13.588;2023-05-27T08:14:48;15.33;55.88
68977;SHT31;56029;52.568;13.588;2023-05-27T08:17:14;15.24;55.34
68977;SHT31;56029;52.568;13.588;2023-05-27T08:19:39;15.40;56.53
68977;SHT31;56029;52.568;13.588;2023-05-27T08:22:06;15.59;54.55
68977;SHT31;56029;52.568;13.588;2023-05-27T08:24:34;15.75;54.31
68977;SHT31;56029;52.568;13.588;2023-05-27T08:27:00;15.40;51.94
68977;SHT31;56029;52.568;13.588;2023-05-27T08:29:28;15.48;53.56
68977;SHT31;56029;52.568;13.588;2023-05-27T08:31:56;15.59;54.52
68977;SHT31;56029;52.568;13.588;2023-05-27T08:34:22;15.68;53.41
68977;SHT31;56029;52.568;13.588;2023-05-27T08:36:48;15.68;53.56
68977;SHT31;56029;52.568;13.588;2023-05-27T08:39:13;15.73;53.12
68977;SHT31;56029;52.568;13.588;2023-05-27T08:41:39;15.69;51.92
68977;SHT31;56029;52.568;13.588;2023-05-27T08:44:05;15.62;51.74
68977;SHT31;56029;52.568;13.588;2023-05-27T08:46:32;15.66;52.25
68977;SHT31;56029;52.568;13.588;2023-05-27T08:48:58;16.02;53.22
68977;SHT31;56029;52.568;13.588;2023-05-27T08:51:25;15.92;51.76
68977;SHT31;56029;52.568;13.588;2023-05-27T08:53:51;15.92;52.41
68977;SHT31;56029;52.568;13.588;2023-05-27T08:56:19;16.16;54.69
68977;SHT31;56029;52.568;13.588;2023-05-27T08:58:46;16.30;52.03
68977;SHT31;56029;52.568;13.588;2023-05-27T09:01:18;16.26;51.57
68977;SHT31;56029;52.568;13.588;2023-05-27T09:03:44;16.29;52.16
68977;SHT31;56029;52.568;13.588;2023-05-27T09:06:11;16.50;50.52
68977;SHT31;56029;52.568;13.588;2023-05-27T09:08:37;16.12;50.87
68977;SHT31;56029;52.568;13.588;2023-05-27T09:11:03;16.43;50.24
68977;SHT31;56029;52.568;13.588;2023-05-27T09:13:29;16.61;49.92
68977;SHT31;56029;52.568;13.588;2023-05-27T09:16:05;16.70;50.00
68977;SHT31;56029;52.568;13.588;2023-05-27T09:18:35;16.78;49.70
68977;SHT31;56029;52.568;13.588;2023-05-27T09:21:01;16.71;49.79
68977;SHT31;56029;52.568;13.588;2023-05-27T09:23:27;16.92;50.66
68977;SHT31;56029;52.568;13.588;2023-05-27T09:25:53;16.92;53.64
68977;SHT31;56029;52.568;13.588;2023-05-27T09:28:25;16.71;49.73
68977;SHT31;56029;52.568;13.588;2023-05-27T09:31:08;16.67;51.07
68977;SHT31;56029;52.568;13.588;2023-05-27T09:33:35;16.79;51.01
68977;SHT31;56029;52.568;13.588;2023-05-27T09:36:03;16.61;50.33
68977;SHT31;56029;52.568;13.588;2023-05-27T09:38:30;16.57;51.17
68977;SHT31;56029;52.568;13.588;2023-05-27T09:40:57;16.67;52.00
68977;SHT31;56029;52.568;13.588;2023-05-27T09:43:24;16.88;51.09
68977;SHT31;56029;52.568;13.588;2023-05-27T09:45:51;16.89;48.80
68977;SHT31;56029;52.568;13.588;2023-05-27T09:48:18;16.74;47.65
68977;SHT31;56029;52.568;13.588;2023-05-27T09:50:46;16.78;48.49
68977;SHT31;56029;52.568;13.588;2023-05-27T09:53:13;16.75;46.96
68977;SHT31;56029;52.568;13.588;2023-05-27T09:55:40;16.75;47.11
68977;SHT31;56029;52.568;13.588;2023-05-27T09:58:06;16.87;48.69
68977;SHT31;56029;52.568;13.588;2023-05-27T10:00:33;17.11;50.25
68977;SHT31;56029;52.568;13.588;2023-05-27T10:03:00;17.11;47.19
68977;SHT31;56029;52.568;13.588;2023-05-27T10:05:26;17.19;45.64
68977;SHT31;56029;52.568;13.588;2023-05-27T10:07:52;17.12;46.30
68977;SHT31;56029;52.568;13.588;2023-05-27T10:10:18;17.26;46.46
68977;SHT31;56029;52.568;13.588;2023-05-27T10:12:49;17.22;46.10
68977;SHT31;56029;52.568;13.588;2023-05-27T10:15:31;17.33;46.05
68977;SHT31;56029;52.568;13.588;2023-05-27T10:17:59;17.36;46.39
68977;SHT31;56029;52.568;13.588;2023-05-27T10:20:33;17.23;47.17
68977;SHT31;56029;52.568;13.588;2023-05-27T10:25:39;17.05;46.79
68977;SHT31;56029;52.568;13.588;2023-05-27T10:28:05;17.28;48.10
68977;SHT31;56029;52.568;13.588;2023-05-27T10:30:42;17.59;48.42
68977;SHT31;56029;52.568;13.588;2023-05-27T10:33:09;17.63;48.35
68977;SHT31;56029;52.568;13.588;2023-05-27T10:35:42;17.88;47.31
68977;SHT31;56029;52.568;13.588;2023-05-27T10:38:15;17.91;45.85
68977;SHT31;56029;52.568;13.588;2023-05-27T10:40:42;18.19;46.63
68977;SHT31;56029;52.568;13.588;2023-05-27T10:43:15;18.02;46.15
68977;SHT31;56029;52.568;13.588;2023-05-27T10:45:41;17.63;45.12
68977;SHT31;56029;52.568;13.588;2023-05-27T10:48:18;17.66;46.66
68977;SHT31;56029;52.568;13.588;2023-05-27T10:50:52;17.83;46.25
68977;SHT31;56029;52.568;13.588;2023-05-27T10:53:20;18.07;48.10
68977;SHT31;56029;52.568;13.588;2023-05-27T10:55:49;17.93;45.97
68977;SHT31;56029;52.568;13.588;2023-05-27T10:58:16;18.16;47.23
68977;SHT31;56029;52.568;13.588;2023-05-27T11:00:44;18.04;46.99
68977;SHT31;56029;52.568;13.588;2023-05-27T11:03:24;18.04;47.08
68977;SHT31;56029;52.568;13.588;2023-05-27T11:06:01;18.14;46.31
68977;SHT31;56029;52.568;13.588;2023-05-27T11:08:27;18.01;46.22
68977;SHT31;56029;52.568;13.588;2023-05-27T11:11:05;18.39;46.89
68977;SHT31;56029;52.568;13.588;2023-05-27T11:13:35;18.38;44.70
68977;SHT31;56029;52.568;13.588;2023-05-27T11:16:03;18.35;45.24
68977;SHT31;56029;52.568;13.588;2023-05-27T11:18:40;18.59;44.86
68977;SHT31;56029;52.568;13.588;2023-05-27T11:21:07;18.66;45.56
68977;SHT31;56029;52.568;13.588;2023-05-27T11:23:35;18.76;44.43
68977;SHT31;56029;52.568;13.588;2023-05-27T11:26:01;18.44;44.53
68977;SHT31;56029;52.568;13.588;2023-05-27T11:28:26;18.41;44.99
68977;SHT31;56029;52.568;13.588;2023-05-27T11:30:59;18.67;44.40
68977;SHT31;56029;52.568;13.588;2023-05-27T11:33:33;18.52;45.04
68977;SHT31;56029;52.568;13.588;2023-05-27T11:36:12;18.49;44.03
68977;SHT31;56029;52.568;13.588;2023-05-27T11:38:52;18.28;44.14
68977;SHT31;56029;52.568;13.588;2023-05-27T11:41:23;18.69;44.48
68977;SHT31;56029;52.568;13.588;2023-05-27T11:46:21;18.39;44.03
68977;SHT31;56029;52.568;13.588;2023-05-27T11:48:47;18.52;43.91
68977;SHT31;56029;52.568;13.588;2023-05-27T11:51:13;18.66;42.95
68977;SHT31;56029;52.568;13.588;2023-05-27T11:53:40;18.74;43.06
68977;SHT31;56029;52.568;13.588;2023-05-27T11:56:06;18.70;42.64
68977;SHT31;56029;52.568;13.588;2023-05-27T11:58:32;18.80;42.10
68977;SHT31;56029;52.568;13.588;2023-05-27T12:00:58;18.79;42.10
68977;SHT31;56029;52.568;13.588;2023-05-27T12:03:24;18.82;44.34
68977;SHT31;56029;52.568;13.588;2023-05-27T12:05:49;18.83;43.56
68977;SHT31;56029;52.568;13.588;2023-05-27T12:08:15;18.97;44.48
68977;SHT31;56029;52.568;13.588;2023-05-27T12:10:40;19.34;45.02
68977;SHT31;56029;52.568;13.588;2023-05-27T12:13:06;19.45;46.54
68977;SHT31;56029;52.568;13.588;2023-05-27T12:15:32;19.63;45.46
68977;SHT31;56029;52.568;13.588;2023-05-27T12:17:57;19.73;44.44
68977;SHT31;56029;52.568;13.588;2023-05-27T12:20:23;19.73;44.28
68977;SHT31;56029;52.568;13.588;2023-05-27T12:22:55;19.50;43.00
68977;SHT31;56029;52.568;13.588;2023-05-27T12:25:21;19.52;46.09
68977;SHT31;56029;52.568;13.588;2023-05-27T12:27:46;19.18;43.22
68977;SHT31;56029;52.568;13.588;2023-05-27T12:30:12;19.14;44.29
68977;SHT31;56029;52.568;13.588;2023-05-27T12:32:39;19.30;44.26
68977;SHT31;56029;52.568;13.588;2023-05-27T12:35:05;19.36;42.62
68977;SHT31;56029;52.568;13.588;2023-05-27T12:37:31;19.32;43.30
68977;SHT31;56029;52.568;13.588;2023-05-27T12:39:56;19.13;44.12
68977;SHT31;56029;52.568;13.588;2023-05-27T12:42:22;19.38;44.64
68977;SHT31;56029;52.568;13.588;2023-05-27T12:44:48;19.35;43.25
68977;SHT31;56029;52.568;13.588;2023-05-27T12:47:13;19.39;42.80
68977;SHT31;56029;52.568;13.588;2023-05-27T12:49:39;19.34;42.88
68977;SHT31;56029;52.568;13.588;2023-05-27T12:52:05;19.36;44.13
68977;SHT31;56029;52.568;13.588;2023-05-27T12:54:31;19.27;44.08
68977;SHT31;56029;52.568;13.588;2023-05-27T12:56:57;19.50;45.37
68977;SHT31;56029;52.568;13.588;2023-05-27T12:59:22;19.44;43.01
68977;SHT31;56029;52.568;13.588;2023-05-27T13:01:49;19.58;44.25
68977;SHT31;56029;52.568;13.588;2023-05-27T13:04:15;19.57;43.93
68977;SHT31;56029;52.568;13.588;2023-05-27T13:06:40;19.75;43.71
68977;SHT31;56029;52.568;13.588;2023-05-27T13:09:06;19.83;45.73
68977;SHT31;56029;52.568;13.588;2023-05-27T13:11:33;19.94;44.26
68977;SHT31;56029;52.568;13.588;2023-05-27T13:13:59;20.08;44.22
68977;SHT31;56029;52.568;13.588;2023-05-27T13:16:24;20.20;44.12
68977;SHT31;56029;52.568;13.588;2023-05-27T13:18:50;20.27;43.45
68977;SHT31;56029;52.568;13.588;2023-05-27T13:21:15;20.16;42.93
68977;SHT31;56029;52.568;13.588;2023-05-27T13:23:41;19.87;42.80
68977;SHT31;56029;52.568;13.588;2023-05-27T13:26:06;19.69;43.28
68977;SHT31;56029;52.568;13.588;2023-05-27T13:28:32;19.83;43.69
68977;SHT31;56029;52.568;13.588;2023-05-27T13:30:57;19.92;42.99
68977;SHT31;56029;52.568;13.588;2023-05-27T13:33:23;20.03;43.90
68977;SHT31;56029;52.568;13.588;2023-05-27T13:35:49;20.21;42.18
68977;SHT31;56029;52.568;13.588;2023-05-27T13:38:14;20.27;41.89
68977;SHT31;56029;52.568;13.588;2023-05-27T13:40:42;20.41;44.82
68977;SHT31;56029;52.568;13.588;2023-05-27T13:43:08;20.47;42.57
68977;SHT31;56029;52.568;13.588;2023-05-27T13:45:33;20.48;43.64
68977;SHT31;56029;52.568;13.588;2023-05-27T13:47:59;20.58;39.95
68977;SHT31;56029;52.568;13.588;2023-05-27T13:50:25;20.68;41.82
68977;SHT31;56029;52.568;13.588;2023-05-27T13:52:50;20.64;40.69
68977;SHT31;56029;52.568;13.588;2023-05-27T13:55:16;20.74;41.96
68977;SHT31;56029;52.568;13.588;2023-05-27T13:57:42;20.85;37.73
68977;SHT31;56029;52.568;13.588;2023-05-27T14:00:08;20.75;37.89
68977;SHT31;56029;52.568;13.588;2023-05-27T14:02:34;20.77;40.55
68977;SHT31;56029;52.568;13.588;2023-05-27T14:05:00;20.75;39.56
68977;SHT31;56029;52.568;13.588;2023-05-27T14:07:27;20.44;39.23
68977;SHT31;56029;52.568;13.588;2023-05-27T14:09:53;20.44;39.64
68977;SHT31;56029;52.568;13.588;2023-05-27T14:12:19;20.17;39.76
68977;SHT31;56029;52.568;13.588;2023-05-27T14:14:44;20.09;40.23
68977;SHT31;56029;52.568;13.588;2023-05-27T14:17:10;20.08;39.97
68977;SHT31;56029;52.568;13.588;2023-05-27T14:19:35;20.05;39.69
68977;SHT31;56029;52.568;13.588;2023-05-27T14:22:01;20.23;42.99
68977;SHT31;56029;52.568;13.588;2023-05-27T14:24:26;20.37;43.46
68977;SHT31;56029;52.568;13.588;2023-05-27T14:26:52;20.48;42.01
68977;SHT31;56029;52.568;13.588;2023-05-27T14:29:17;20.63;41.05
68977;SHT31;56029;52.568;13.588;2023-05-27T14:31:43;20.43;39.82
68977;SHT31;56029;52.568;13.588;2023-05-27T14:34:09;20.51;40.43
68977;SHT31;56029;52.568;13.588;2023-05-27T14:36:35;20.50;40.12
68977;SHT31;56029;52.568;13.588;2023-05-27T14:39:00;20.44;40.45
68977;SHT31;56029;52.568;13.588;2023-05-27T14:41:31;20.36;40.02
68977;SHT31;56029;52.568;13.588;2023-05-27T14:43:56;20.41;39.78
68977;SHT31;56029;52.568;13.588;2023-05-27T14:46:22;20.50;39.36
68977;SHT31;56029;52.568;13.588;2023-05-27T14:48:47;20.45;39.73
68977;SHT31;56029;52.568;13.588;2023-05-27T14:51:13;20.61;42.61
68977;SHT31;56029;52.568;13.588;2023-05-27T14:53:38;20.72;44.12
68977;SHT31;56029;52.568;13.588;2023-05-27T14:56:04;20.75;40.09
68977;SHT31;56029;52.568;13.588;2023-05-27T14:58:29;20.67;39.63
68977;SHT31;56029;52.568;13.588;2023-05-27T15:00:55;20.71;41.53
68977;SHT31;56029;52.568;13.588;2023-05-27T15:03:21;20.52;39.92
68977;SHT31;56029;52.568;13.588;2023-05-27T15:05:47;20.65;42.22
68977;SHT31;56029;52.568;13.588;2023-05-27T15:08:12;20.60;39.55
68977;SHT31;56029;52.568;13.588;2023-05-27T15:10:42;20.54;41.84
68977;SHT31;56029;52.568;13.588;2023-05-27T15:13:08;20.67;42.00
68977;SHT31;56029;52.568;13.588;2023-05-27T15:15:34;20.38;42.49
68977;SHT31;56029;52.568;13.588;2023-05-27T15:18:04;20.41;42.74
68977;SHT31;56029;52.568;13.588;2023-05-27T15:20:31;20.58;42.86
68977;SHT31;56029;52.568;13.588;2023-05-27T15:22:56;20.84;42.76
68977;SHT31;56029;52.568;13.588;2023-05-27T15:25:22;20.99;43.07
68977;SHT31;56029;52.568;13.588;2023-05-27T15:27:48;20.92;42.50